createdAt,value
2018-05-04T00:00:11.488Z,80.10
2018-05-04T00:02:39.858Z,79.40
2018-05-04T00:05:07.484Z,79.40
2018-05-04T00:07:35.002Z,77.90
2018-05-04T00:10:02.542Z,77.90
2018-05-04T00:12:30.901Z,79.20
2018-05-04T00:14:58.467Z,79.10
2018-05-04T00:17:26.034Z,78.60
2018-05-04T00:19:54.327Z,80.10
2018-05-04T00:22:21.870Z,80.20
2018-05-04T00:24:50.172Z,76.90
2018-05-04T00:27:17.737Z,77.00
2018-05-04T00:29:45.312Z,74.40
2018-05-04T00:32:12.859Z,76.80
2018-05-04T00:34:40.399Z,73.70
2018-05-04T00:37:07.942Z,73.60
2018-05-04T00:39:35.465Z,71.70
2018-05-04T00:42:03.255Z,71.80
2018-05-04T00:44:30.870Z,72.40
2018-05-04T00:46:58.438Z,73.20
2018-05-04T00:49:26.786Z,75.40
2018-05-04T00:51:54.327Z,75.40
2018-05-04T00:54:23.518Z,72.00
2018-05-04T00:56:51.844Z,71.40
2018-05-04T00:59:19.460Z,71.40
2018-05-04T01:01:47.757Z,73.40
2018-05-04T01:04:15.309Z,72.70
2018-05-04T01:06:42.865Z,71.50
2018-05-04T01:09:11.173Z,71.00
2018-05-04T01:11:38.696Z,71.00
2018-05-04T01:14:07.053Z,71.20
2018-05-04T01:16:34.605Z,71.20
2018-05-04T01:19:02.162Z,70.80
2018-05-04T01:21:29.683Z,71.30
2018-05-04T01:23:57.245Z,69.50
2018-05-04T01:26:24.862Z,69.90
2018-05-04T01:28:52.464Z,70.10
2018-05-04T01:31:20.030Z,70.70
2018-05-04T01:33:48.331Z,70.30
2018-05-04T01:36:15.898Z,70.30
2018-05-04T01:38:43.436Z,70.60
2018-05-04T01:41:10.986Z,70.60
2018-05-04T01:43:38.544Z,70.10
2018-05-04T01:46:06.888Z,70.60
2018-05-04T01:48:34.406Z,70.50
2018-05-04T01:51:01.990Z,70.80
2018-05-04T01:53:29.523Z,70.50
2018-05-04T01:55:57.063Z,70.30
2018-05-04T01:58:25.422Z,71.10
2018-05-04T02:00:53.043Z,71.00
2018-05-04T02:03:20.574Z,70.10
2018-05-04T02:05:48.154Z,70.10
2018-05-04T02:08:15.705Z,70.40
2018-05-04T02:10:43.225Z,70.70
2018-05-04T02:13:10.822Z,70.40
2018-05-04T02:15:38.492Z,70.40
2018-05-04T02:18:06.014Z,70.40
2018-05-04T02:20:33.546Z,70.60
2018-05-04T02:23:01.865Z,70.50
2018-05-04T02:25:29.386Z,70.50
2018-05-04T02:27:57.702Z,71.20
2018-05-04T02:30:26.018Z,71.50
2018-05-04T02:32:53.543Z,71.50
2018-05-04T02:35:21.887Z,70.70
2018-05-04T02:37:49.442Z,70.70
2018-05-04T02:40:17.739Z,73.90
2018-05-04T02:42:45.313Z,73.90
2018-05-04T02:45:12.871Z,73.30
2018-05-04T02:47:40.435Z,72.70
2018-05-04T02:50:07.976Z,73.90
2018-05-04T02:52:36.859Z,73.10
2018-05-04T02:55:04.402Z,73.10
2018-05-04T02:57:32.690Z,72.90
2018-05-04T03:00:00.229Z,72.80
2018-05-04T03:02:28.868Z,73.20
2018-05-04T03:04:56.422Z,73.20
2018-05-04T03:07:23.950Z,73.60
2018-05-04T03:09:51.535Z,74.00
2018-05-04T03:12:19.070Z,73.80
2018-05-04T03:14:46.608Z,73.40
2018-05-04T03:17:14.130Z,73.20
2018-05-04T03:19:41.691Z,73.40
2018-05-04T03:22:09.221Z,72.60
2018-05-04T03:24:36.753Z,72.80
2018-05-04T03:27:05.160Z,73.20
2018-05-04T03:29:32.709Z,72.90
2018-05-04T03:32:00.242Z,72.90
2018-05-04T03:34:28.591Z,73.10
2018-05-04T03:36:56.895Z,72.70
2018-05-04T03:39:25.207Z,73.20
2018-05-04T03:41:52.789Z,73.20
2018-05-04T03:44:20.342Z,73.20
2018-05-04T03:46:47.886Z,73.00
2018-05-04T03:49:16.507Z,73.40
2018-05-04T03:51:44.112Z,73.20
2018-05-04T03:54:11.645Z,73.20
2018-05-04T03:56:39.230Z,73.20
2018-05-04T04:02:26.111Z,73.10
2018-05-04T04:04:53.644Z,73.10
2018-05-04T04:07:21.191Z,72.60
2018-05-04T04:09:48.718Z,72.60
2018-05-04T04:12:16.263Z,72.40
2018-05-04T04:14:43.809Z,72.40
2018-05-04T04:17:11.633Z,72.60
2018-05-04T04:19:39.922Z,72.70
2018-05-04T04:22:08.304Z,72.70
2018-05-04T04:24:35.832Z,73.10
2018-05-04T04:27:04.139Z,73.10
2018-05-04T04:29:32.455Z,72.80
2018-05-04T04:31:59.990Z,72.80
2018-05-04T04:34:27.561Z,73.30
2018-05-04T04:36:55.083Z,73.10
2018-05-04T04:39:22.649Z,73.30
2018-05-04T04:41:50.291Z,73.40
2018-05-04T04:44:18.603Z,72.70
2018-05-04T04:49:30.640Z,72.50
2018-05-04T04:51:58.153Z,72.50
2018-05-04T04:54:25.702Z,73.20
2018-05-04T04:56:53.250Z,72.80
2018-05-04T04:59:21.584Z,72.80
2018-05-04T05:01:49.119Z,72.80
2018-05-04T05:04:16.666Z,73.60
2018-05-04T05:06:44.990Z,73.90
2018-05-04T05:09:12.550Z,73.90
2018-05-04T05:11:40.079Z,74.20
2018-05-04T05:14:07.617Z,74.80
2018-05-04T05:16:35.174Z,74.20
2018-05-04T05:19:03.477Z,74.30
2018-05-04T05:21:31.037Z,74.40
2018-05-04T05:23:58.562Z,75.80
2018-05-04T05:26:26.862Z,74.10
2018-05-04T05:28:54.375Z,74.10
2018-05-04T05:31:21.952Z,74.40
2018-05-04T05:33:49.494Z,75.00
2018-05-04T05:36:17.071Z,75.10
2018-05-04T05:38:45.354Z,74.20
2018-05-04T05:41:13.681Z,74.90
2018-05-04T05:43:41.258Z,74.80
2018-05-04T05:46:08.771Z,73.40
2018-05-04T05:48:36.310Z,73.70
2018-05-04T05:51:04.613Z,75.20
2018-05-04T05:53:32.125Z,75.20
2018-05-04T05:55:59.667Z,73.90
2018-05-04T05:58:27.197Z,74.00
2018-05-04T06:00:54.807Z,74.00
2018-05-04T06:03:23.161Z,75.50
2018-05-04T06:05:50.725Z,75.20
2018-05-04T06:08:18.279Z,75.90
2018-05-04T06:10:45.799Z,76.70
2018-05-04T06:13:13.349Z,74.20
2018-05-04T06:15:40.889Z,74.00
2018-05-04T06:18:09.203Z,74.90
2018-05-04T06:20:36.760Z,74.90
2018-05-04T06:23:04.984Z,74.00
2018-05-04T06:25:33.442Z,72.90
2018-05-04T06:28:00.976Z,73.00
2018-05-04T06:30:28.541Z,74.10
2018-05-04T06:32:56.095Z,72.70
2018-05-04T06:35:23.637Z,72.10
2018-05-04T06:37:51.250Z,72.90
2018-05-04T06:40:18.812Z,73.00
2018-05-04T06:42:46.373Z,72.90
2018-05-04T06:45:13.910Z,72.10
2018-05-04T06:47:41.477Z,72.30
2018-05-04T06:50:09.765Z,71.80
2018-05-04T06:52:37.312Z,71.80
2018-05-04T06:55:04.869Z,70.90
2018-05-04T06:57:32.429Z,69.70
2018-05-04T06:59:59.958Z,69.90
2018-05-04T07:02:27.550Z,70.00
2018-05-04T07:04:55.076Z,69.20
2018-05-04T07:07:22.599Z,68.10
2018-05-04T07:09:50.163Z,71.20
2018-05-04T07:12:19.388Z,70.50
2018-05-04T07:14:46.933Z,70.50
2018-05-04T07:17:15.217Z,71.00
2018-05-04T07:19:42.805Z,71.00
2018-05-04T07:22:10.351Z,69.30
2018-05-04T07:24:37.915Z,68.70
2018-05-04T07:27:05.454Z,69.30
2018-05-04T07:29:33.841Z,68.30
2018-05-04T07:32:01.369Z,68.40
2018-05-04T07:34:29.712Z,67.20
2018-05-04T07:36:57.453Z,67.20
2018-05-04T07:39:24.991Z,67.00
2018-05-04T07:41:53.312Z,67.60
2018-05-04T07:44:20.849Z,67.60
2018-05-04T07:46:48.386Z,69.40
2018-05-04T07:49:15.905Z,69.20
2018-05-04T07:51:43.469Z,68.00
2018-05-04T07:54:11.000Z,68.90
2018-05-04T07:56:38.585Z,69.10
2018-05-04T07:59:06.806Z,65.80
2018-05-04T08:01:34.361Z,67.20
2018-05-04T08:04:02.673Z,66.80
2018-05-04T08:06:30.198Z,66.70
2018-05-04T08:08:58.694Z,67.80
2018-05-04T08:11:26.242Z,67.00
2018-05-04T08:13:54.550Z,68.00
2018-05-04T08:16:22.099Z,68.00
2018-05-04T08:18:49.646Z,68.10
2018-05-04T08:21:17.985Z,69.30
2018-05-04T08:23:45.541Z,69.30
2018-05-04T08:26:13.101Z,69.30
2018-05-04T08:28:40.728Z,69.70
2018-05-04T08:31:09.025Z,70.90
2018-05-04T08:33:36.595Z,70.90
2018-05-04T08:36:04.916Z,69.80
2018-05-04T08:38:32.466Z,69.80
2018-05-04T08:41:00.034Z,69.90
2018-05-04T08:43:27.569Z,69.70
2018-05-04T08:45:57.506Z,68.70
2018-05-04T08:48:25.083Z,68.30
2018-05-04T08:50:52.677Z,69.10
2018-05-04T08:53:20.221Z,70.60
2018-05-04T08:55:47.762Z,70.40
2018-05-04T08:58:15.535Z,70.30
2018-05-04T09:00:43.865Z,68.50
2018-05-04T09:03:12.168Z,68.70
2018-05-04T09:05:39.808Z,68.50
2018-05-04T09:08:07.274Z,69.50
2018-05-04T09:10:36.442Z,68.50
2018-05-04T09:13:04.005Z,68.50
2018-05-04T09:15:31.544Z,68.50
2018-05-04T09:17:59.102Z,69.60
2018-05-04T09:20:26.637Z,70.00
2018-05-04T09:22:54.240Z,68.90
2018-05-04T09:25:21.809Z,68.10
2018-05-04T09:27:49.359Z,68.20
2018-05-04T09:30:16.926Z,69.00
2018-05-04T09:32:44.474Z,68.50
2018-05-04T09:35:12.125Z,67.20
2018-05-04T09:37:39.679Z,67.60
2018-05-04T09:40:07.198Z,67.70
2018-05-04T09:42:35.021Z,66.90
2018-05-04T09:45:02.557Z,66.60
2018-05-04T09:47:30.109Z,67.70
2018-05-04T09:49:57.627Z,66.30
2018-05-04T09:52:25.963Z,68.30
2018-05-04T09:54:53.525Z,68.20
2018-05-04T09:57:21.037Z,68.70
2018-05-04T09:59:48.594Z,69.20
2018-05-04T10:02:16.938Z,67.20
2018-05-04T10:04:51.685Z,67.10
2018-05-04T10:07:19.299Z,66.10
2018-05-04T10:09:46.833Z,65.00
2018-05-04T10:12:14.367Z,65.80
2018-05-04T10:14:42.681Z,63.20
2018-05-04T10:17:10.203Z,63.10
2018-05-04T10:19:37.757Z,63.50
2018-05-04T10:22:06.097Z,62.10
2018-05-04T10:24:33.660Z,61.90
2018-05-04T10:27:01.192Z,63.10
2018-05-04T10:29:28.724Z,63.00
2018-05-04T10:31:57.040Z,61.30
2018-05-04T10:34:24.553Z,61.20
2018-05-04T10:36:52.875Z,58.80
2018-05-04T10:39:20.394Z,58.70
2018-05-04T10:41:47.949Z,61.70
2018-05-04T10:44:16.255Z,58.40
2018-05-04T10:46:43.830Z,58.30
2018-05-04T10:49:11.345Z,58.00
2018-05-04T10:51:39.678Z,56.40
2018-05-04T10:54:07.239Z,56.40
2018-05-04T10:56:34.779Z,58.20
2018-05-04T10:59:02.311Z,58.90
2018-05-04T11:01:29.866Z,59.90
2018-05-04T11:03:58.179Z,58.40
2018-05-04T11:06:25.727Z,58.30
2018-05-04T11:08:53.288Z,58.80
2018-05-04T11:11:20.817Z,58.30
2018-05-04T11:13:49.149Z,57.60
2018-05-04T11:16:16.665Z,57.70
2018-05-04T11:18:44.973Z,58.60
2018-05-04T11:21:12.496Z,58.50
2018-05-04T11:23:40.805Z,59.00
2018-05-04T11:26:08.360Z,59.00
2018-05-04T11:28:35.945Z,59.80
2018-05-04T11:31:04.270Z,61.60
2018-05-04T11:33:32.577Z,62.80
2018-05-04T11:36:00.110Z,62.80
2018-05-04T11:38:27.698Z,61.80
2018-05-04T11:40:55.241Z,61.10
2018-05-04T11:43:22.813Z,61.40
2018-05-04T11:45:50.355Z,60.90
2018-05-04T11:48:17.879Z,61.10
2018-05-04T11:50:45.426Z,61.30
2018-05-04T11:53:12.951Z,61.80
2018-05-04T11:55:40.492Z,61.20
2018-05-04T11:58:08.017Z,60.60
2018-05-04T12:00:35.554Z,61.10
2018-05-04T12:03:03.105Z,60.40
2018-05-04T12:05:30.690Z,60.90
2018-05-04T12:07:58.211Z,60.90
2018-05-04T12:10:25.746Z,61.10
2018-05-04T12:12:53.292Z,62.10
2018-05-04T12:15:21.601Z,60.00
2018-05-04T12:17:49.148Z,60.00
2018-05-04T12:20:16.929Z,60.80
2018-05-04T12:22:44.497Z,60.60
2018-05-04T12:25:12.013Z,60.90
2018-05-04T12:27:40.301Z,62.00
2018-05-04T12:30:07.849Z,62.20
2018-05-04T12:32:36.137Z,61.50
2018-05-04T12:35:04.447Z,60.30
2018-05-04T12:37:31.974Z,60.20
2018-05-04T12:39:59.537Z,60.80
2018-05-04T12:42:27.071Z,61.00
2018-05-04T12:44:55.404Z,61.50
2018-05-04T12:47:22.968Z,61.50
2018-05-04T12:49:51.276Z,60.70
2018-05-04T12:52:18.910Z,60.50
2018-05-04T12:54:46.434Z,60.10
2018-05-04T12:57:13.988Z,60.70
2018-05-04T12:59:41.526Z,59.60
2018-05-04T13:02:09.851Z,60.50
2018-05-04T13:04:37.381Z,60.70
2018-05-04T13:07:04.949Z,61.00
2018-05-04T13:09:32.481Z,60.20
2018-05-04T13:12:00.026Z,59.90
2018-05-04T13:14:27.561Z,61.70
2018-05-04T13:16:55.109Z,60.20
2018-05-04T13:19:22.664Z,61.10
2018-05-04T13:21:50.188Z,61.40
2018-05-04T13:24:18.499Z,60.60
2018-05-04T13:26:46.068Z,60.50
2018-05-04T13:29:13.632Z,61.00
2018-05-04T13:31:41.272Z,61.30
2018-05-04T13:34:08.861Z,61.30
2018-05-04T13:36:36.377Z,60.60
2018-05-04T13:39:03.998Z,61.70
2018-05-04T13:41:31.514Z,62.20
2018-05-04T13:43:59.045Z,61.40
2018-05-04T13:46:27.365Z,60.20
2018-05-04T13:48:54.899Z,60.20
2018-05-04T13:51:22.564Z,63.10
2018-05-04T13:53:50.217Z,61.90
2018-05-04T13:56:17.771Z,62.00
2018-05-04T13:58:46.221Z,61.70
2018-05-04T14:01:13.812Z,60.40
2018-05-04T14:03:41.360Z,60.90
2018-05-04T14:06:09.702Z,62.20
2018-05-04T14:08:37.245Z,62.10
2018-05-04T14:11:04.866Z,61.70
2018-05-04T14:13:32.409Z,60.20
2018-05-04T14:15:59.974Z,60.60
2018-05-04T14:18:28.272Z,64.70
2018-05-04T14:20:55.815Z,63.80
2018-05-04T14:23:24.123Z,61.20
2018-05-04T14:25:51.707Z,61.20
2018-05-04T14:28:19.282Z,61.20
2018-05-04T14:30:46.895Z,61.90
2018-05-04T14:33:14.430Z,61.20
2018-05-04T14:35:42.759Z,61.40
2018-05-04T14:38:10.325Z,61.50
2018-05-04T14:40:38.544Z,61.10
2018-05-04T14:43:06.856Z,61.00
2018-05-04T14:45:34.373Z,60.90
2018-05-04T14:48:01.925Z,62.50
2018-05-04T14:50:30.234Z,62.20
2018-05-04T14:52:57.801Z,62.20
2018-05-04T14:55:25.343Z,62.10
2018-05-04T14:57:52.902Z,62.50
2018-05-04T15:00:20.430Z,61.50
2018-05-04T15:02:47.964Z,62.20
2018-05-04T15:05:15.513Z,61.50
2018-05-04T15:07:43.052Z,61.80
2018-05-04T15:10:10.661Z,61.70
2018-05-04T15:12:38.172Z,60.50
2018-05-04T15:15:05.721Z,60.90
2018-05-04T15:17:34.009Z,61.20
2018-05-04T15:20:01.715Z,61.20
2018-05-04T15:22:29.262Z,61.20
2018-05-04T15:24:56.831Z,61.20
2018-05-04T15:27:24.365Z,60.90
2018-05-04T15:29:51.918Z,60.50
2018-05-04T15:32:19.453Z,61.10
2018-05-04T15:34:48.418Z,61.30
2018-05-04T15:37:15.983Z,61.30
2018-05-04T15:39:43.546Z,61.30
2018-05-04T15:42:11.120Z,61.40
2018-05-04T15:44:39.411Z,60.60
2018-05-04T15:47:07.015Z,60.60
2018-05-04T15:49:34.542Z,60.40
2018-05-04T15:52:03.976Z,60.40
2018-05-04T15:54:31.557Z,61.50
2018-05-04T15:56:59.115Z,61.70
2018-05-04T15:59:26.637Z,63.00
2018-05-04T16:01:54.184Z,61.50
2018-05-04T16:04:22.463Z,61.90
2018-05-04T16:06:50.050Z,62.00
2018-05-04T16:09:17.595Z,62.00
2018-05-04T16:11:45.127Z,62.50
2018-05-04T16:14:13.487Z,63.20
2018-05-04T16:16:41.824Z,63.00
2018-05-04T16:19:09.354Z,62.90
2018-05-04T16:21:36.871Z,62.90
2018-05-04T16:24:04.428Z,62.80
2018-05-04T16:26:31.970Z,62.40
2018-05-04T16:29:01.115Z,62.60
2018-05-04T16:31:29.414Z,62.10
2018-05-04T16:33:56.965Z,62.10
2018-05-04T16:36:24.515Z,62.40
2018-05-04T16:38:52.885Z,64.20
2018-05-04T16:41:21.174Z,62.70
2018-05-04T16:43:49.643Z,62.70
2018-05-04T16:46:23.505Z,62.40
2018-05-04T16:48:56.769Z,62.40
2018-05-04T16:51:24.305Z,62.80
2018-05-04T16:53:51.832Z,62.60
2018-05-04T16:56:19.373Z,62.20
2018-05-04T16:58:46.936Z,62.60
2018-05-04T17:01:14.453Z,63.30
2018-05-04T17:03:42.771Z,64.50
2018-05-04T17:06:11.045Z,64.40
2018-05-04T17:08:39.601Z,64.40
2018-05-04T17:11:07.181Z,64.40
2018-05-04T17:13:34.718Z,65.10
2018-05-04T17:16:02.249Z,64.90
2018-05-04T17:18:30.605Z,66.00
2018-05-04T17:20:58.325Z,66.00
2018-05-04T17:23:25.849Z,65.90
2018-05-04T17:25:53.441Z,66.50
2018-05-04T17:28:20.970Z,67.00
2018-05-04T17:30:49.317Z,66.50
2018-05-04T17:33:16.854Z,66.30
2018-05-04T17:35:44.433Z,66.70
2018-05-04T17:38:11.955Z,66.80
2018-05-04T17:40:39.492Z,66.50
2018-05-04T17:43:07.037Z,68.50
2018-05-04T17:45:35.367Z,68.20
2018-05-04T17:48:02.894Z,68.10
2018-05-04T17:50:31.228Z,68.70
2018-05-04T17:52:58.780Z,68.70
2018-05-04T17:55:26.334Z,69.10
2018-05-04T17:57:54.641Z,68.80
2018-05-04T18:00:22.261Z,68.70
2018-05-04T18:02:49.773Z,69.30
2018-05-04T18:05:18.095Z,69.70
2018-05-04T18:07:47.001Z,69.80
2018-05-04T18:10:14.625Z,69.70
2018-05-04T18:12:42.301Z,70.10
2018-05-04T18:15:09.853Z,70.20
2018-05-04T18:17:38.241Z,69.70
2018-05-04T18:20:05.827Z,69.70
2018-05-04T18:22:33.396Z,69.50
2018-05-04T18:25:00.915Z,69.50
2018-05-04T18:27:28.482Z,69.10
2018-05-04T18:29:56.055Z,68.80
2018-05-04T18:32:23.643Z,69.00
2018-05-04T18:34:51.197Z,69.50
2018-05-04T18:37:18.742Z,69.30
2018-05-04T18:39:46.261Z,69.10
2018-05-04T18:42:14.096Z,68.60
2018-05-04T18:44:41.640Z,68.90
2018-05-04T18:47:09.237Z,68.60
2018-05-04T18:49:37.528Z,69.00
2018-05-04T18:52:06.012Z,69.00
2018-05-04T18:54:33.557Z,69.40
2018-05-04T18:57:01.884Z,68.80
2018-05-04T18:59:29.449Z,68.80
2018-05-04T19:01:57.005Z,69.10
2018-05-04T19:04:24.560Z,69.20
2018-05-04T19:06:52.133Z,69.40
2018-05-04T19:09:19.680Z,68.60
2018-05-04T19:11:47.257Z,68.60
2018-05-04T19:14:14.846Z,69.00
2018-05-04T19:16:43.178Z,70.40
2018-05-04T19:19:10.745Z,70.30
2018-05-04T19:21:38.265Z,70.60
2018-05-04T19:24:05.928Z,70.10
2018-05-04T19:26:33.513Z,70.40
2018-05-04T19:29:01.099Z,70.40
2018-05-04T19:31:28.791Z,69.50
2018-05-04T19:33:56.339Z,69.60
2018-05-04T19:36:23.888Z,70.20
2018-05-04T19:38:51.467Z,69.70
2018-05-04T19:41:19.799Z,70.50
2018-05-04T19:43:47.331Z,70.50
2018-05-04T19:46:14.928Z,70.50
2018-05-04T19:48:42.468Z,70.60
2018-05-04T19:51:10.096Z,71.40
2018-05-04T19:53:38.395Z,71.20
2018-05-04T19:56:06.544Z,71.10
2018-05-04T19:58:34.122Z,71.10
2018-05-04T20:01:01.664Z,70.70
2018-05-04T20:03:29.952Z,69.90
2018-05-04T20:05:57.642Z,70.00
2018-05-04T20:08:25.213Z,70.00
2018-05-04T20:10:53.567Z,69.40
2018-05-04T20:13:21.164Z,69.40
2018-05-04T20:15:49.450Z,69.90
2018-05-04T20:18:17.016Z,70.50
2018-05-04T20:20:44.556Z,70.30
2018-05-04T20:23:12.121Z,70.20
2018-05-04T20:25:39.736Z,70.50
2018-05-04T20:28:07.297Z,70.20
2018-05-04T20:30:34.817Z,70.00
2018-05-04T20:33:02.413Z,70.70
2018-05-04T20:35:29.957Z,70.40
2018-05-04T20:37:58.276Z,71.20
2018-05-04T20:40:25.841Z,71.10
2018-05-04T20:42:53.382Z,71.80
2018-05-04T20:45:20.913Z,71.60
2018-05-04T20:47:48.519Z,71.00
2018-05-04T20:50:16.081Z,71.00
2018-05-04T20:52:43.707Z,71.00
2018-05-04T20:55:11.268Z,72.30
2018-05-04T20:57:38.843Z,71.80
2018-05-04T21:00:06.377Z,71.70
2018-05-04T21:02:34.663Z,72.20
2018-05-04T21:05:02.235Z,72.30
2018-05-04T21:07:29.778Z,72.00
2018-05-04T21:09:57.376Z,71.90
2018-05-04T21:12:24.946Z,72.30
2018-05-04T21:14:52.481Z,72.00
2018-05-04T21:17:20.032Z,72.90
2018-05-04T21:19:47.692Z,72.70
2018-05-04T21:22:15.980Z,73.20
2018-05-04T21:24:44.309Z,73.40
2018-05-04T21:27:11.832Z,73.40
2018-05-04T21:29:39.344Z,73.40
2018-05-04T21:32:07.732Z,73.50
2018-05-04T21:34:35.459Z,73.40
2018-05-04T21:37:03.092Z,73.70
2018-05-04T21:39:31.157Z,73.50
2018-05-04T21:41:58.824Z,74.00
2018-05-04T21:44:26.442Z,74.30
2018-05-04T21:46:54.069Z,74.70
2018-05-04T21:49:21.606Z,74.60
2018-05-04T21:51:49.200Z,74.90
2018-05-04T21:54:16.744Z,75.60
2018-05-04T21:56:44.287Z,75.50
2018-05-04T21:59:11.886Z,75.70
2018-05-04T22:01:39.379Z,75.80
2018-05-04T22:04:06.901Z,75.50
2018-05-04T22:06:34.476Z,75.80
2018-05-04T22:09:02.038Z,75.20
2018-05-04T22:11:29.578Z,74.90
2018-05-04T22:13:57.133Z,74.80
2018-05-04T22:16:24.677Z,75.40
2018-05-04T22:18:52.245Z,75.10
2018-05-04T22:21:19.862Z,74.40
2018-05-04T22:23:47.354Z,73.50
2018-05-04T22:26:14.870Z,73.10
2018-05-04T22:28:42.441Z,73.00
2018-05-04T22:31:09.960Z,73.40
2018-05-04T22:33:37.512Z,73.10
2018-05-04T22:36:06.580Z,73.10
2018-05-04T22:38:34.145Z,73.10
2018-05-04T22:41:01.678Z,72.90
2018-05-04T22:43:30.006Z,73.10
2018-05-04T22:45:57.549Z,73.10
2018-05-04T22:48:25.079Z,72.70
2018-05-04T22:50:52.628Z,72.70
2018-05-04T22:53:20.170Z,73.00
2018-05-04T22:55:48.468Z,72.70
2018-05-04T22:58:15.996Z,72.70
2018-05-04T23:00:44.317Z,73.30
2018-05-04T23:03:11.836Z,73.30
2018-05-04T23:05:40.153Z,73.90
2018-05-04T23:08:07.670Z,73.90
2018-05-04T23:10:35.977Z,74.40
2018-05-04T23:13:03.489Z,74.40
2018-05-04T23:15:31.048Z,74.20
2018-05-04T23:17:58.581Z,74.00
2018-05-04T23:20:26.218Z,74.00
2018-05-04T23:22:53.732Z,74.50
2018-05-04T23:25:22.027Z,75.20
2018-05-04T23:27:50.324Z,75.70
2018-05-04T23:30:17.862Z,75.60
2018-05-04T23:32:46.173Z,75.50
2018-05-04T23:35:13.728Z,75.50
2018-05-04T23:37:41.265Z,75.40
2018-05-04T23:40:09.559Z,75.70
2018-05-04T23:42:37.183Z,75.70
2018-05-04T23:45:05.470Z,76.00
2018-05-04T23:47:33.783Z,75.80
2018-05-04T23:50:01.330Z,75.80
2018-05-04T23:52:28.951Z,75.90
2018-05-04T23:54:56.539Z,76.50
2018-05-04T23:57:24.064Z,76.20
2018-05-04T23:59:51.640Z,76.20
